EGHI

Southampton Airport

Southampton, United Kingdom
METAR EGHI 191250Z 02005KT 330V060 CAVOK 14/07 Q1026
Observed Flight Rules
Oct-19 @ 12:50 UTC (33 minutes ago) Visual Flight Rules
Wind Visibility Clouds
20° at 5 knots 10,000+ meters
  • Clear skies
Temperatures Readings
Current 14°C / 57°F
Dewpoint 7°C / 45°F
Humidity 63%
Altimeter 30.3" Hg
Pressure 1026 hPa
Elevation 14
METAR EGHI 191250Z 02005KT 330V060 CAVOK 14/07 Q1026
Observed Flight Rules
Oct-19 @ 12:50 UTC
(33 minutes ago)
VFR
Wind Visibility
20° at 5 knots 10,000+ meters
Clouds
  • Clear skies
Temperature Dewpoint
14°C / 57°F 7°C / 45°F
Humidity Altimeter Pressure
63% 30.3" Hg 1026 hPa